Time;durP1;ratioP1;P1;durP2;ratioP2;P2;SDS_P1;SDS_P2;PMS_P1;PMS_P2;Temp;Humidity;BMP_temperature;BMP_pressure;BME280_temperature;BME280_humidity;BME280_pressure;Samples;Min_cycle;Max_cycle;Signal;HPM_P1;HPM_P2
2024/02/02 00:02:09;;;;;;;27.50;6.50;;;;;;;4.42;100.00;103173.81;5069368;28;20051;-39
2024/02/02 00:04:34;;;;;;;19.30;5.95;;;;;;;4.39;100.00;103167.75;5068906;28;20090;-39
2024/02/02 00:06:59;;;;;;;17.07;5.70;;;;;;;4.41;100.00;103150.69;5061080;28;20024;-39
2024/02/02 00:09:25;;;;;;;19.87;6.17;;;;;;;4.42;100.00;103153.22;5055769;28;20028;-39
2024/02/02 00:11:50;;;;;;;15.83;4.90;;;;;;;4.42;100.00;103144.34;5055659;28;20049;-39
2024/02/02 00:14:16;;;;;;;23.33;6.05;;;;;;;4.36;100.00;103124.31;5055651;28;20036;-39
2024/02/02 00:16:41;;;;;;;16.53;5.10;;;;;;;4.41;100.00;103134.63;5055685;28;20048;-39
2024/02/02 00:19:07;;;;;;;16.70;5.75;;;;;;;4.41;100.00;103139.97;5056045;28;20035;-39
2024/02/02 00:21:32;;;;;;;20.15;6.28;;;;;;;4.41;100.00;103134.63;5056567;28;20036;-39
2024/02/02 00:23:58;;;;;;;20.05;6.18;;;;;;;4.41;100.00;103134.63;5055433;28;20157;-39
2024/02/02 00:26:23;;;;;;;15.47;4.83;;;;;;;4.42;100.00;103133.63;5056123;28;20032;-39
2024/02/02 00:28:48;;;;;;;16.53;5.90;;;;;;;4.37;100.00;103128.69;5055768;28;20061;-39
2024/02/02 00:31:14;;;;;;;20.93;6.20;;;;;;;4.44;100.00;103137.00;5055410;28;20052;-39
2024/02/02 00:33:39;;;;;;;16.63;5.47;;;;;;;4.46;100.00;103135.06;5056155;28;20029;-39
2024/02/02 00:36:05;;;;;;;17.00;6.03;;;;;;;4.45;100.00;103128.00;5055571;28;20052;-39
2024/02/02 00:38:30;;;;;;;16.42;5.97;;;;;;;4.45;100.00;103123.50;5055094;28;20017;-39
2024/02/02 00:40:56;;;;;;;16.43;5.60;;;;;;;4.48;100.00;103117.00;5055671;28;20021;-39
2024/02/02 00:43:21;;;;;;;15.90;5.87;;;;;;;4.46;100.00;103098.41;5055106;28;20669;-39
2024/02/02 00:45:47;;;;;;;22.97;5.80;;;;;;;4.43;100.00;103079.06;5055346;28;20267;-39
2024/02/02 00:48:12;;;;;;;17.37;5.63;;;;;;;4.48;100.00;103096.41;5054884;28;20465;-39
2024/02/02 00:50:37;;;;;;;17.47;5.90;;;;;;;4.50;100.00;103091.78;5054905;28;20051;-39
2024/02/02 00:53:03;;;;;;;19.07;6.43;;;;;;;4.49;100.00;103092.78;5055826;28;20108;-39
2024/02/02 00:55:28;;;;;;;16.83;5.50;;;;;;;4.51;100.00;103101.50;5054857;28;20076;-39
2024/02/02 00:57:54;;;;;;;21.53;7.40;;;;;;;4.52;100.00;103105.88;5054887;28;20040;-39
2024/02/02 01:00:19;;;;;;;19.73;6.35;;;;;;;4.56;100.00;103114.50;5055441;28;20086;-39
2024/02/02 01:02:45;;;;;;;13.70;5.90;;;;;;;4.56;100.00;103117.19;5054805;28;20036;-39
2024/02/02 01:05:10;;;;;;;16.07;6.43;;;;;;;4.52;100.00;103111.25;5055883;28;20036;-39
2024/02/02 01:07:35;;;;;;;19.70;6.47;;;;;;;4.61;100.00;103112.28;5055798;28;20264;-39
2024/02/02 01:10:01;;;;;;;16.90;6.00;;;;;;;4.49;100.00;103084.75;5055473;28;20450;-39
2024/02/02 01:12:26;;;;;;;15.50;6.00;;;;;;;4.62;100.00;103109.44;5055503;28;20351;-39
2024/02/02 01:14:52;;;;;;;15.03;5.53;;;;;;;4.63;100.00;103107.59;5054812;28;20031;-39
2024/02/02 01:17:17;;;;;;;20.53;6.53;;;;;;;4.63;100.00;103095.06;5055024;28;20442;-39
2024/02/02 01:19:42;;;;;;;15.07;5.87;;;;;;;4.56;100.00;103083.19;5053631;28;20028;-39
2024/02/02 01:22:08;;;;;;;21.77;6.97;;;;;;;4.64;100.00;103088.72;5054469;28;20033;-39
2024/02/02 01:24:33;;;;;;;17.73;6.13;;;;;;;4.64;100.00;103102.13;5054368;28;20033;-39
2024/02/02 01:26:58;;;;;;;16.17;5.80;;;;;;;4.65;100.00;103101.13;5054363;28;20053;-39
2024/02/02 01:29:25;;;;;;;20.30;6.43;;;;;;;4.66;100.00;103099.31;5054519;28;20029;-39
2024/02/02 01:31:50;;;;;;;18.15;6.60;;;;;;;4.64;100.00;103085.19;5054777;28;20271;-39
2024/02/02 01:34:16;;;;;;;17.15;6.28;;;;;;;4.63;100.00;103080.81;5054141;28;20512;-39
2024/02/02 01:36:41;;;;;;;17.17;7.13;;;;;;;4.64;100.00;103079.84;5054402;28;20025;-39
2024/02/02 01:39:11;;;;;;;16.17;6.50;;;;;;;4.58;100.00;103070.50;5054889;28;20299;-39
2024/02/02 01:41:38;;;;;;;19.05;7.18;;;;;;;4.62;100.00;103071.91;5054909;28;20052;-39
2024/02/02 01:44:04;;;;;;;20.40;7.32;;;;;;;4.64;100.00;103069.97;5054524;28;20408;-39
2024/02/02 01:46:29;;;;;;;;;;;;;;;4.70;100.00;103073.09;5054718;28;20170;-39
2024/02/02 01:48:57;;;;;;;22.17;7.03;;;;;;;4.67;100.00;103070.66;5054208;28;19982;-39
2024/02/02 01:51:22;;;;;;;15.00;6.22;;;;;;;4.67;100.00;103065.31;5054203;28;20036;-39
2024/02/02 01:53:48;;;;;;;18.43;6.20;;;;;;;4.59;100.00;103055.28;5054165;28;20029;-39
2024/02/02 01:56:14;;;;;;;16.00;6.17;;;;;;;4.66;100.00;103061.78;5054234;28;20296;-39
2024/02/02 01:58:39;;;;;;;18.20;6.57;;;;;;;4.65;100.00;103062.78;5053672;28;20088;-39
2024/02/02 02:01:05;;;;;;;16.15;6.35;;;;;;;4.62;100.00;103055.00;5053798;28;20107;-39
2024/02/02 02:03:30;;;;;;;12.47;5.83;;;;;;;4.67;100.00;103067.97;5053958;28;20025;-39
2024/02/02 02:05:56;;;;;;;15.77;6.17;;;;;;;4.60;100.00;103054.31;5054074;28;20111;-39
2024/02/02 02:08:22;;;;;;;18.88;6.65;;;;;;;4.62;100.00;103052.31;5053569;28;20454;-39
2024/02/02 02:10:47;;;;;;;15.48;5.32;;;;;;;4.65;100.00;103052.06;5054414;28;20035;-39
2024/02/02 02:13:13;;;;;;;16.77;5.97;;;;;;;4.63;100.00;103027.22;5054139;28;20024;-39
2024/02/02 02:15:39;;;;;;;19.45;6.30;;;;;;;4.62;100.00;103018.31;5053403;28;20136;-39
2024/02/02 02:18:04;;;;;;;17.02;6.20;;;;;;;4.57;100.00;103011.69;5053377;28;20458;-39
2024/02/02 02:20:30;;;;;;;16.92;6.30;;;;;;;4.57;100.00;103014.38;5053535;28;20108;-39
2024/02/02 02:22:56;;;;;;;16.15;6.90;;;;;;;4.59;100.00;103012.41;5053151;28;20029;-39
2024/02/02 02:25:21;;;;;;;17.40;5.82;;;;;;;4.54;100.00;103001.25;5053706;28;20029;-39
2024/02/02 02:27:47;;;;;;;17.90;6.25;;;;;;;4.59;100.00;103007.06;5053713;28;20067;-39
2024/02/02 02:30:13;;;;;;;14.50;5.88;;;;;;;4.57;100.00;103015.22;5053186;28;20393;-39
2024/02/02 02:32:39;;;;;;;14.50;5.50;;;;;;;4.58;100.00;103013.38;5053310;28;20024;-39
2024/02/02 02:35:05;;;;;;;17.27;5.43;;;;;;;4.55;100.00;103011.84;5052865;28;20033;-39
2024/02/02 02:37:30;;;;;;;16.98;6.28;;;;;;;4.50;100.00;103013.25;5053749;28;20098;-39
2024/02/02 02:39:56;;;;;;;21.20;6.43;;;;;;;4.56;100.00;103007.31;5053263;28;20036;-39
2024/02/02 02:42:21;;;;;;;20.75;5.45;;;;;;;4.57;100.00;102998.28;5053070;28;20060;-39
2024/02/02 02:44:46;;;;;;;11.03;4.87;;;;;;;4.55;100.00;102992.25;5052922;28;20044;-39
2024/02/02 02:47:12;;;;;;;16.63;5.27;;;;;;;4.58;100.00;103002.66;5053873;28;20025;-39
2024/02/02 02:49:38;;;;;;;16.23;5.18;;;;;;;4.49;100.00;102990.09;5053161;28;20267;-39
2024/02/02 02:52:04;;;;;;;16.00;4.97;;;;;;;4.59;100.00;103007.06;5053712;28;20051;-39
2024/02/02 02:54:29;;;;;;;16.02;4.82;;;;;;;4.59;100.00;103004.38;5052811;28;20025;-39
2024/02/02 02:56:55;;;;;;;20.93;5.83;;;;;;;4.58;100.00;103002.66;5052744;28;20048;-39
2024/02/02 02:59:21;;;;;;;14.90;5.10;;;;;;;4.56;100.00;102997.44;5052687;28;20027;-39
2024/02/02 03:01:46;;;;;;;14.87;4.67;;;;;;;4.55;100.00;103000.28;5053223;28;20108;-39
2024/02/02 03:04:12;;;;;;;17.75;5.40;;;;;;;4.58;100.00;103006.19;5053527;28;20028;-39
2024/02/02 03:06:38;;;;;;;15.07;5.03;;;;;;;4.54;100.00;102991.41;5053749;28;20347;-39
2024/02/02 03:09:04;;;;;;;15.60;4.95;;;;;;;4.52;100.00;102984.47;5052961;28;20025;-39
2024/02/02 03:11:30;;;;;;;12.90;4.75;;;;;;;4.57;100.00;102998.28;5053518;28;20025;-39
2024/02/02 03:13:55;;;;;;;18.27;5.20;;;;;;;4.56;100.00;102992.09;5053104;28;20025;-39
2024/02/02 03:16:20;;;;;;;14.63;5.27;;;;;;;4.57;100.00;102992.94;5053822;28;20450;-39
2024/02/02 03:18:46;;;;;;;11.63;4.70;;;;;;;4.50;100.00;102975.72;5053018;28;20037;-39
2024/02/02 03:21:11;;;;;;;20.13;5.50;;;;;;;4.50;100.00;102959.66;5053147;28;20025;-39
2024/02/02 03:23:36;;;;;;;14.97;4.97;;;;;;;4.53;100.00;102970.06;5052976;28;20056;-39
2024/02/02 03:26:02;;;;;;;15.80;5.10;;;;;;;4.52;100.00;102973.75;5052997;28;20032;-39
2024/02/02 03:28:27;;;;;;;21.27;5.30;;;;;;;4.50;100.00;102957.81;5052932;28;20064;-39
2024/02/02 03:30:53;;;;;;;16.67;5.07;;;;;;;4.49;100.00;102955.25;5052984;28;20358;-39
2024/02/02 03:33:18;;;;;;;17.93;4.87;;;;;;;4.48;100.00;102941.03;5053486;28;20029;-39
2024/02/02 03:35:43;;;;;;;15.33;5.20;;;;;;;4.38;100.00;102932.97;5052829;28;20513;-39
2024/02/02 03:38:09;;;;;;;12.43;4.90;;;;;;;4.43;100.00;102945.09;5053723;28;20024;-39
2024/02/02 03:40:34;;;;;;;14.67;4.47;;;;;;;4.39;100.00;102953.44;5053366;28;20025;-39
2024/02/02 03:43:00;;;;;;;15.97;4.80;;;;;;;4.36;100.00;102945.66;5056501;28;20251;-39
2024/02/02 03:45:25;;;;;;;14.73;4.97;;;;;;;4.23;100.00;102920.97;5056602;28;20118;-39
2024/02/02 03:47:51;;;;;;;13.18;4.47;;;;;;;4.29;100.00;102931.13;5056590;28;20433;-39
2024/02/02 03:50:16;;;;;;;12.68;4.40;;;;;;;4.31;100.00;102947.91;5056528;28;20021;-39
2024/02/02 03:52:41;;;;;;;14.87;5.33;;;;;;;4.29;100.00;102952.56;5056921;28;20033;-39
2024/02/02 03:55:07;;;;;;;20.13;5.10;;;;;;;4.21;100.00;102943.53;5056623;28;20102;-39
2024/02/02 03:57:32;;;;;;;15.57;5.13;;;;;;;4.26;100.00;102947.50;5056491;28;20151;-39
2024/02/02 03:59:58;;;;;;;18.90;5.63;;;;;;;4.25;100.00;102951.16;5056277;28;20291;-39
2024/02/02 04:02:23;;;;;;;20.17;5.20;;;;;;;4.24;100.00;102956.63;5056602;28;20039;-39
2024/02/02 04:04:48;;;;;;;14.17;4.77;;;;;;;4.24;100.00;102957.47;5056758;28;20518;-39
2024/02/02 04:07:14;;;;;;;13.10;4.53;;;;;;;4.23;100.00;102953.09;5056726;28;20035;-39
2024/02/02 04:09:39;;;;;;;10.97;4.17;;;;;;;4.22;100.00;102946.06;5056206;28;20259;-39
2024/02/02 04:12:05;;;;;;;18.80;5.90;;;;;;;4.17;100.00;102926.88;5056087;28;20064;-39
2024/02/02 04:14:30;;;;;;;14.40;4.93;;;;;;;4.18;100.00;102922.38;5055628;28;20150;-39
2024/02/02 04:16:56;;;;;;;13.17;4.53;;;;;;;4.21;100.00;102931.00;5056364;28;20021;-39
2024/02/02 04:19:21;;;;;;;17.07;6.47;;;;;;;4.24;100.00;102932.53;5055626;28;20025;-39
2024/02/02 04:21:46;;;;;;;15.47;4.60;;;;;;;4.20;100.00;102931.97;5056155;28;20104;-39
2024/02/02 04:24:12;;;;;;;10.83;4.77;;;;;;;4.19;100.00;102940.97;5055855;28;20488;-39
2024/02/02 04:26:37;;;;;;;15.35;4.68;;;;;;;4.18;100.00;102935.75;5055403;28;20424;-39
2024/02/02 04:29:04;;;;;;;15.85;4.80;;;;;;;4.24;100.00;102949.44;5055740;28;20025;-39
2024/02/02 04:31:29;;;;;;;15.30;4.55;;;;;;;4.24;100.00;102946.75;5056062;28;20059;-39
2024/02/02 04:33:55;;;;;;;14.07;4.50;;;;;;;4.21;100.00;102928.31;5055598;28;20108;-39
2024/02/02 04:36:20;;;;;;;11.30;4.43;;;;;;;4.28;100.00;102950.88;5055532;28;20385;-39
2024/02/02 04:38:45;;;;;;;16.27;4.63;;;;;;;4.30;100.00;102943.56;5055542;28;20021;-39
2024/02/02 04:41:11;;;;;;;13.80;4.70;;;;;;;4.29;100.00;102939.16;5056106;28;20071;-39
2024/02/02 04:43:36;;;;;;;13.33;4.23;;;;;;;4.20;100.00;102923.94;5055509;28;20815;-39
2024/02/02 04:46:01;;;;;;;12.93;4.93;;;;;;;4.27;100.00;102935.78;5055484;28;20097;-39
2024/02/02 04:48:27;;;;;;;17.20;5.07;;;;;;;4.35;100.00;102949.34;5054182;28;20033;-39
2024/02/02 04:50:52;;;;;;;16.93;5.03;;;;;;;4.25;100.00;102935.09;5055749;28;20071;-39
2024/02/02 04:53:17;;;;;;;15.67;4.83;;;;;;;4.34;100.00;102941.41;5055246;28;20385;-39
2024/02/02 04:55:43;;;;;;;13.63;4.20;;;;;;;4.32;100.00;102941.56;5061257;28;20096;-39
2024/02/02 04:58:09;;;;;;;16.83;4.80;;;;;;;4.32;100.00;102936.22;5055499;28;20029;-39
2024/02/02 05:00:35;;;;;;;14.63;4.75;;;;;;;4.37;100.00;102931.28;5055475;28;20460;-39
2024/02/02 05:03:01;;;;;;;11.38;4.28;;;;;;;4.38;100.00;102918.72;5055636;28;20028;-39
2024/02/02 05:05:26;;;;;;;12.55;4.50;;;;;;;4.39;100.00;102933.81;5055095;28;20028;-39
2024/02/02 05:07:52;;;;;;;13.37;4.73;;;;;;;4.40;100.00;102922.13;5055630;28;20029;-39
2024/02/02 05:10:17;;;;;;;15.63;4.63;;;;;;;4.41;100.00;102917.63;5054770;28;20418;-39
2024/02/02 05:12:44;;;;;;;13.93;4.70;;;;;;;4.39;100.00;102915.94;5054970;28;20020;-39
2024/02/02 05:15:10;;;;;;;15.90;3.95;;;;;;;4.31;100.00;102894.34;5054768;28;20182;-39
2024/02/02 05:17:35;;;;;;;13.68;4.60;;;;;;;4.41;100.00;102902.41;5055705;28;20457;-39
2024/02/02 05:20:04;;;;;;;12.80;4.43;;;;;;;4.33;100.00;102884.31;5054555;28;20028;-39
2024/02/02 05:22:29;;;;;;;12.82;4.35;;;;;;;4.29;100.00;102882.06;5055069;28;20268;-39
2024/02/02 05:24:54;;;;;;;15.37;4.57;;;;;;;4.34;100.00;102894.09;5054464;28;20106;-39
2024/02/02 05:27:20;;;;;;;11.53;4.30;;;;;;;4.33;100.00;102889.69;5055506;28;20728;-39
2024/02/02 05:29:45;;;;;;;15.80;4.67;;;;;;;4.29;100.00;102890.09;5054330;28;20104;-39
2024/02/02 05:32:10;;;;;;;10.17;3.63;;;;;;;4.28;100.00;102889.25;5054879;28;20094;-39
2024/02/02 05:34:36;;;;;;;12.67;3.93;;;;;;;4.17;100.00;102875.16;5054544;28;20465;-39
2024/02/02 05:37:01;;;;;;;14.10;4.03;;;;;;;4.21;100.00;102880.09;5054498;28;20029;-39
2024/02/02 05:39:27;;;;;;;15.13;5.05;;;;;;;4.17;100.00;102884.03;5054448;28;20029;-39
2024/02/02 05:41:53;;;;;;;16.23;4.35;;;;;;;4.16;100.00;102877.00;5054646;28;20032;-39
2024/02/02 05:44:18;;;;;;;13.57;3.78;;;;;;;4.13;100.00;102878.13;5054353;28;20458;-39
2024/02/02 05:46:44;;;;;;;17.58;4.43;;;;;;;4.13;100.00;102871.91;5054852;28;20434;-39
2024/02/02 05:49:09;;;;;;;16.90;3.90;;;;;;;4.09;100.00;102851.75;5053957;28;20032;-39
2024/02/02 05:51:34;;;;;;;18.83;5.10;;;;;;;4.05;100.00;102863.72;5054006;28;20059;-39
2024/02/02 05:54:00;;;;;;;15.23;3.93;;;;;;;4.04;100.00;102867.38;5054428;28;20029;-39
2024/02/02 05:56:25;;;;;;;15.13;4.80;;;;;;;4.03;100.00;102857.66;5054650;28;20073;-39
2024/02/02 05:58:51;;;;;;;12.67;3.77;;;;;;;3.96;100.00;102851.19;5054614;28;20071;-39
2024/02/02 06:01:16;;;;;;;12.87;4.27;;;;;;;3.99;100.00;102859.78;5054634;28;20047;-39
2024/02/02 06:03:42;;;;;;;15.02;4.15;;;;;;;3.97;100.00;102856.41;5053746;28;20048;-39
2024/02/02 06:06:07;;;;;;;14.00;3.72;;;;;;;3.95;100.00;102852.16;5053702;28;20104;-39
2024/02/02 06:08:33;;;;;;;15.13;4.17;;;;;;;3.95;100.00;102854.84;5053913;28;20025;-39
2024/02/02 06:10:58;;;;;;;13.77;4.07;;;;;;;3.93;100.00;102849.63;5054038;28;20470;-39
2024/02/02 06:13:23;;;;;;;11.03;3.70;;;;;;;3.92;100.00;102852.44;5054076;28;20126;-39
2024/02/02 06:15:49;;;;;;;16.80;4.50;;;;;;;3.90;100.00;102849.03;5053368;28;20029;-39
2024/02/02 06:18:16;;;;;;;14.87;4.37;;;;;;;3.91;100.00;102850.75;5053821;28;20025;-39
2024/02/02 06:20:41;;;;;;;11.80;3.83;;;;;;;3.87;100.00;102852.84;5053313;28;20477;-39
2024/02/02 06:23:07;;;;;;;14.65;4.75;;;;;;;3.87;100.00;102861.72;5054459;28;20031;-39
2024/02/02 06:25:32;;;;;;;12.13;4.03;;;;;;;3.81;100.00;102835.53;5053658;28;20443;-39
2024/02/02 06:27:58;;;;;;;11.17;3.43;;;;;;;3.75;100.00;102841.41;5054190;28;20021;-39
2024/02/02 06:30:23;;;;;;;13.73;3.97;;;;;;;3.79;100.00;102853.53;5054279;28;20025;-39
2024/02/02 06:32:49;;;;;;;14.17;4.17;;;;;;;3.83;100.00;102859.47;5053486;28;20305;-39
2024/02/02 06:35:17;;;;;;;14.20;3.97;;;;;;;3.82;100.00;102857.78;5053329;28;20384;-39
2024/02/02 06:37:42;;;;;;;20.40;5.82;;;;;;;3.82;100.00;102868.50;5053668;28;20523;-39
2024/02/02 06:40:08;;;;;;;12.43;4.10;;;;;;;3.82;100.00;102869.34;5053400;28;20041;-39
2024/02/02 06:42:33;;;;;;;15.05;5.68;;;;;;;3.80;100.00;102873.13;5053359;28;20500;-39
2024/02/02 06:44:59;;;;;;;13.00;3.77;;;;;;;3.80;100.00;102878.47;5053046;28;20039;-39
2024/02/02 06:47:24;;;;;;;11.63;3.60;;;;;;;3.80;100.00;102875.78;5053304;28;20461;-39
2024/02/02 06:49:50;;;;;;;12.30;4.10;;;;;;;3.80;100.00;102875.78;5053184;28;20278;-39
2024/02/02 06:52:16;;;;;;;12.83;3.87;;;;;;;3.71;100.00;102876.59;5054052;28;20086;-39
2024/02/02 06:54:42;;;;;;;13.07;4.13;;;;;;;3.79;100.00;102884.81;5053090;28;20043;-39
2024/02/02 06:57:08;;;;;;;12.68;3.70;;;;;;;3.79;100.00;102879.44;5053557;28;20045;-39
2024/02/02 06:59:33;;;;;;;12.23;3.73;;;;;;;3.81;100.00;102882.84;5053744;28;20025;-39
2024/02/02 07:01:59;;;;;;;13.77;3.97;;;;;;;3.81;100.00;102882.84;5053427;28;20466;-39
2024/02/02 07:04:25;;;;;;;14.18;4.35;;;;;;;3.80;100.00;102879.31;5053023;28;20028;-39
2024/02/02 07:06:51;;;;;;;15.50;4.03;;;;;;;3.83;100.00;102881.72;5053583;28;20036;-39
2024/02/02 07:09:26;;;;;;;15.48;4.25;;;;;;;3.86;100.00;102896.69;5053215;28;20100;-39
2024/02/02 07:11:56;;;;;;;15.65;3.95;;;;;;;3.89;100.00;102891.03;5053044;28;20025;-39
2024/02/02 07:14:46;;;;;;;15.15;4.95;;;;;;;3.91;100.00;102899.78;5052774;28;20428;-39
2024/02/02 07:17:31;;;;;;;14.27;4.35;;;;;;;3.93;100.00;102896.97;5055269;28;20377;-39
2024/02/02 07:19:57;;;;;;;16.63;4.50;;;;;;;3.94;100.00;102896.81;5056735;28;20028;-39
2024/02/02 07:22:31;;;;;;;17.17;5.15;;;;;;;3.94;100.00;102899.50;5057051;28;20033;-39
2024/02/02 07:24:56;;;;;;;13.02;4.20;;;;;;;3.84;100.00;102878.06;5056517;28;20052;-39
2024/02/02 07:27:42;;;;;;;17.70;4.60;;;;;;;3.91;100.00;102894.44;5057668;28;20052;-39
2024/02/02 07:30:31;;;;;;;17.80;5.03;;;;;;;4.00;100.00;102908.81;5056499;28;20271;-39
2024/02/02 07:32:58;;;;;;;14.48;4.65;;;;;;;3.98;100.00;102900.06;5057302;28;20021;-39
2024/02/02 07:35:29;;;;;;;14.63;4.65;;;;;;;3.98;100.00;102903.59;5056234;28;20032;-39
2024/02/02 07:37:55;;;;;;;14.80;4.55;;;;;;;4.01;100.00;102894.47;5056742;28;20556;-39
2024/02/02 07:41:03;;;;;;;13.47;4.47;;;;;;;3.95;100.00;102876.25;5056646;28;20112;-39
2024/02/02 07:43:32;;;;;;;16.27;4.85;;;;;;;3.98;100.00;102874.16;5057321;28;20369;-39
2024/02/02 07:45:58;;;;;;;13.63;4.18;;;;;;;4.06;100.00;102886.84;5056125;28;20061;-39
2024/02/02 07:48:24;;;;;;;15.65;5.07;;;;;;;4.08;100.00;102885.72;5056151;28;20167;-39
2024/02/02 07:50:49;;;;;;;16.30;4.47;;;;;;;4.11;100.00;102884.59;5056717;28;20116;-39
2024/02/02 07:53:14;;;;;;;16.47;4.90;;;;;;;4.06;100.00;102873.47;5056694;28;20029;-39
2024/02/02 07:55:40;;;;;;;13.65;4.82;;;;;;;4.12;100.00;102889.81;5056758;28;20032;-39
2024/02/02 07:58:05;;;;;;;16.57;5.37;;;;;;;4.16;100.00;102892.22;5056386;28;20056;-39
2024/02/02 08:00:30;;;;;;;20.23;5.33;;;;;;;4.15;100.00;102886.03;5055918;28;20025;-39
2024/02/02 08:02:56;;;;;;;16.07;5.07;;;;;;;4.18;100.00;102891.09;5055933;28;20039;-39
2024/02/02 08:05:21;;;;;;;13.83;5.10;;;;;;;4.20;100.00;102890.94;5055853;28;20037;-39
2024/02/02 08:07:47;;;;;;;17.03;5.50;;;;;;;4.10;100.00;102858.81;5056087;28;20025;-39
2024/02/02 08:10:12;;;;;;;15.73;5.60;;;;;;;4.25;100.00;102880.69;5056150;28;20036;-39
2024/02/02 08:12:37;;;;;;;14.47;4.63;;;;;;;4.25;100.00;102876.16;5055533;28;20055;-39
2024/02/02 08:15:03;;;;;;;16.87;5.40;;;;;;;4.22;100.00;102862.19;5055655;28;20412;-39
2024/02/02 08:17:29;;;;;;;17.27;5.22;;;;;;;4.25;100.00;102862.78;5056201;28;20417;-39
2024/02/02 08:19:54;;;;;;;15.20;5.87;;;;;;;4.35;100.00;102871.66;5055950;28;20051;-39
2024/02/02 08:22:20;;;;;;;17.00;5.40;;;;;;;4.38;100.00;102876.72;5056199;28;20044;-39
2024/02/02 08:24:45;;;;;;;17.13;5.63;;;;;;;4.40;100.00;102868.56;5055796;28;20378;-39
2024/02/02 08:27:10;;;;;;;15.53;5.90;;;;;;;4.43;100.00;102864.75;5055340;28;20040;-40
2024/02/02 08:29:36;;;;;;;21.73;6.53;;;;;;;4.44;100.00;102874.47;5055711;28;20053;-42
2024/02/02 08:32:01;;;;;;;21.03;6.00;;;;;;;4.48;100.00;102874.03;5056283;28;20025;-39
2024/02/02 08:34:27;;;;;;;18.98;6.82;;;;;;;4.49;100.00;102861.50;5055555;28;20025;-39
2024/02/02 08:36:53;;;;;;;23.05;6.80;;;;;;;4.50;100.00;102858.69;5055646;28;20116;-39
2024/02/02 08:39:18;;;;;;;18.77;6.57;;;;;;;4.48;100.00;102835.69;5055566;28;20052;-39
2024/02/02 08:41:43;;;;;;;20.70;7.20;;;;;;;4.53;100.00;102849.50;5056101;28;20030;-39
2024/02/02 08:44:35;;;;;;;20.83;6.00;;;;;;;4.60;100.00;102848.81;5055504;28;20120;-39
2024/02/02 08:47:01;;;;;;;18.13;6.78;;;;;;;4.59;100.00;102841.75;5053744;28;20329;-39
2024/02/02 08:49:59;;;;;;;18.33;7.38;;;;;;;4.57;100.00;102840.19;5055563;28;20029;-39
2024/02/02 08:52:30;;;;;;;14.32;6.50;;;;;;;4.54;100.00;102827.94;5055984;28;20036;-39
2024/02/02 08:54:56;;;;;;;22.63;7.63;;;;;;;4.70;100.00;102853.31;5055630;28;20025;-39
2024/02/02 08:57:45;;;;;;;20.15;7.65;;;;;;;4.71;100.00;102849.63;5056251;28;20478;-39
2024/02/02 09:00:13;;;;;;;17.92;7.05;;;;;;;4.75;100.00;102843.00;5055619;28;20028;-39
2024/02/02 09:02:41;;;;;;;17.05;7.28;;;;;;;4.78;100.00;102843.56;5055672;28;20539;-39
2024/02/02 09:05:18;;;;;;;19.38;6.90;;;;;;;4.80;100.00;102838.91;5055105;28;20028;-39
2024/02/02 09:07:47;;;;;;;18.63;6.85;;;;;;;4.83;100.00;102838.63;5055079;28;20029;-39
2024/02/02 09:10:33;;;;;;;14.52;6.88;;;;;;;4.87;100.00;102833.78;5054705;28;20025;-39
2024/02/02 09:13:01;;;;;;;18.42;8.20;;;;;;;4.91;100.00;102843.25;5055180;28;20025;-39
2024/02/02 09:15:27;;;;;;;19.85;8.45;;;;;;;4.93;100.00;102833.22;5054989;28;20025;-39
2024/02/02 09:17:53;;;;;;;;;;;;;;;4.98;100.00;102832.78;5055584;28;20025;-39
2024/02/02 09:20:51;;;;;;;18.83;7.55;;;;;;;4.99;100.00;102834.47;5054755;28;19908;-39
2024/02/02 09:23:17;;;;;;;17.02;8.20;;;;;;;4.99;100.00;102826.44;5054971;28;20033;-39
2024/02/02 09:25:44;;;;;;;22.23;9.32;;;;;;;5.05;100.00;102836.56;5054352;28;20021;-39
2024/02/02 09:28:25;;;;;;;20.13;8.25;;;;;;;5.09;100.00;102844.19;5054890;28;20441;-39
2024/02/02 09:30:56;;;;;;;23.38;9.73;;;;;;;5.01;100.00;102819.09;5054778;28;20159;-39
2024/02/02 09:33:31;;;;;;;23.35;9.65;;;;;;;5.15;100.00;102837.38;5054787;28;20021;-39
2024/02/02 09:35:58;;;;;;;16.52;9.15;;;;;;;5.15;100.00;102832.03;5054690;28;20033;-39
2024/02/02 09:38:24;;;;;;;25.27;9.75;;;;;;;5.21;100.00;102835.94;5054005;28;20035;-39
2024/02/02 09:41:02;;;;;;;23.45;10.55;;;;;;;5.23;100.00;102833.97;5053696;28;20099;-39
2024/02/02 09:43:51;;;;;;;24.02;9.95;;;;;;;5.28;100.00;102847.78;5054848;28;20021;-39
2024/02/02 09:46:31;;;;;;;21.48;10.55;;;;;;;5.28;100.00;102840.59;5054778;28;20033;-39
2024/02/02 09:49:03;;;;;;;23.58;10.00;;;;;;;5.35;100.00;102847.03;5054686;28;20029;-39
2024/02/02 09:51:47;;;;;;;22.70;10.30;;;;;;;5.36;100.00;102835.31;5054714;28;20119;-39
2024/02/02 09:54:26;;;;;;;23.50;11.27;;;;;;;5.42;100.00;102844.63;5054657;28;20033;-39
2024/02/02 09:57:17;;;;;;;23.45;11.10;;;;;;;5.46;100.00;102843.31;5054661;28;20056;-39
2024/02/02 09:59:43;;;;;;;25.58;12.68;;;;;;;5.48;100.00;102835.13;5054572;28;20043;-39
2024/02/02 10:02:23;;;;;;;24.40;13.50;;;;;;;5.50;100.00;102836.66;5054299;28;20412;-39
2024/02/02 10:04:55;;;;;;;31.42;14.63;;;;;;;5.52;100.00;102840.06;5053817;28;20469;-39
2024/02/02 10:07:42;;;;;;;22.95;13.95;;;;;;;5.54;100.00;102843.44;5054404;28;20029;-39
2024/02/02 10:10:25;;;;;;;29.38;14.95;;;;;;;5.58;100.00;102849.34;5053817;28;20078;-39
2024/02/02 10:13:00;;;;;;;27.98;15.77;;;;;;;5.62;100.00;102840.00;5053558;28;20481;-39
2024/02/02 10:15:28;;;;;;;28.42;16.92;;;;;;;5.65;100.00;102837.84;5053884;28;20070;-39
2024/02/02 10:18:02;;;;;;;29.73;17.30;;;;;;;5.69;100.00;102838.41;5053744;28;20456;-39
2024/02/02 10:20:35;;;;;;;27.52;17.88;;;;;;;5.75;100.00;102845.84;5053353;28;20017;-39
2024/02/02 10:23:31;;;;;;;30.13;17.60;;;;;;;5.82;100.00;102843.44;5054168;28;20417;-39
2024/02/02 10:26:21;;;;;;;28.45;18.30;;;;;;;5.85;100.00;102841.25;5053589;28;20041;-39
2024/02/02 10:28:55;;;;;;;27.90;17.58;;;;;;;5.87;100.00;102833.06;5053892;28;20029;-39
2024/02/02 10:31:32;;;;;;;28.27;17.10;;;;;;;5.94;100.00;102847.59;5053480;28;20021;-39
2024/02/02 10:34:25;;;;;;;28.08;17.60;;;;;;;5.98;100.00;102849.00;5053706;28;20048;-39
2024/02/02 10:37:22;;;;;;;25.77;17.50;;;;;;;6.03;100.00;102849.38;5053347;28;20021;-39
2024/02/02 10:40:18;;;;;;;32.42;18.50;;;;;;;6.09;100.00;102842.56;5053045;28;20473;-39
2024/02/02 10:43:04;;;;;;;29.98;19.33;;;;;;;6.13;100.00;102852.84;5053306;28;20031;-39
2024/02/02 10:45:52;;;;;;;33.95;18.65;;;;;;;6.22;100.00;102845.72;5054072;28;20380;-39
2024/02/02 10:48:57;;;;;;;35.10;20.48;;;;;;;6.29;100.00;102854.84;5053168;28;20021;-39
2024/02/02 10:51:38;;;;;;;29.58;18.23;;;;;;;6.32;100.00;102845.63;5030963;28;20033;-39
2024/02/02 10:54:40;;;;;;;28.67;18.75;;;;;;;6.34;100.00;102839.09;5051731;28;20041;-39
2024/02/02 10:57:48;;;;;;;31.73;18.42;;;;;;;6.37;100.00;102841.47;5053759;28;20044;-39
2024/02/02 11:00:17;;;;;;;;;;;;;;;6.40;100.00;102826.91;5031243;28;20033;-39
2024/02/02 11:02:42;;;;;;;30.08;18.67;;;;;;;6.39;100.00;102827.88;5031077;28;19917;-39
2024/02/02 11:05:26;;;;;;;33.43;19.67;;;;;;;6.40;100.00;102824.22;5042003;28;20045;-39
2024/02/02 11:07:54;;;;;;;28.98;17.95;;;;;;;6.37;100.00;102814.59;5053148;28;20025;-39
2024/02/02 11:10:31;;;;;;;31.45;18.75;;;;;;;6.40;100.00;102814.31;5052740;28;20090;-39
2024/02/02 11:13:22;;;;;;;34.90;19.25;;;;;;;6.44;100.00;102810.31;5053650;28;20028;-39
2024/02/02 11:16:06;;;;;;;36.30;19.67;;;;;;;6.46;100.00;102794.03;5049635;28;20029;-39
2024/02/02 11:19:26;;;;;;;29.33;18.77;;;;;;;6.48;100.00;102800.06;5052391;28;20032;-39
2024/02/02 11:22:23;;;;;;;29.73;18.98;;;;;;;6.50;100.00;102792.72;5023848;28;20045;-39
2024/02/02 11:25:08;;;;;;;;;;;;;;;6.54;100.00;102785.16;5033117;28;20104;-39
2024/02/02 11:27:49;;;;;;;33.47;18.67;;;;;;;6.54;100.00;102793.22;5036894;28;19909;-39